»·PEaware :: UAL1151 KABQ-KLAS

UAL1151 :: KABQ-KLAS

FLIGHT INFORMATION

Flight Status: Arrived
Operator:
United Airlines
More flights by this operator :: More flights under this callsign
Pilot: Mike C. (16705)
Aircraft: BOEING 737-800
(B738)
More flights by this aircraft type
Origin: KABQ Albuquerque Intl Sunport
United States
Destination: KLAS McCarran Intl
United States
More flights between these airports :: More routes between these airports
Route: +LARGO3 GUP J72 PGS TYSSN5
File this flight plan on PilotEdge
Remarks: PBN / A1B1C1D1S1S2 DOF / 180416 REG / N838NN EET / KZLA0048 OPR / UAL PER / C RMK / TCAS SIMBRIEF
Altitude:
(Current/Filed)
36,000ft
Speed:
(Current/Filed)
452kts
Departed: 15-Apr-18 04:57 PM
Arrived: 15-Apr-18 06:16 PM
Distance/Time
Traveled:
421nm/1:18
Distance/Time
To Go:
Arrived

Flight Plot

Page will automatically refresh every two minutes.

Flight plan parsing failed; only flown route is shown


Map Options




Map Legend


Flown Route
Filed Route
Departure Airport
Arrival Airport
Navaid (VOR, NDB)
Fix

Horizontal Profiles

Position Reports

Time Latitude Longitude Heading Altitude Ground
Speed
15-Apr-18 16:35 35.047013 -106.615572 0 5320ft 0kts
15-Apr-18 16:36 35.047013 -106.615572 0 5320ft 0kts
15-Apr-18 16:37 35.047013 -106.615572 0 5320ft 0kts
15-Apr-18 16:38 35.047013 -106.615572 0 5320ft 0kts
15-Apr-18 16:39 35.047013 -106.615572 0 5320ft 0kts
15-Apr-18 16:40 35.047013 -106.615572 0 5320ft 0kts
15-Apr-18 16:41 35.047013 -106.615572 0 5320ft 0kts
15-Apr-18 16:42 35.047013 -106.615572 0 5320ft 0kts
15-Apr-18 16:43 35.047013 -106.615572 0 5320ft 0kts
15-Apr-18 16:44 35.047013 -106.615572 0 5320ft 0kts
15-Apr-18 16:45 35.047013 -106.615572 0 5320ft 0kts
15-Apr-18 16:46 35.046898 -106.615573 0 5319ft 2kts
15-Apr-18 16:47 35.046303 -106.616125 71 5319ft 2kts
15-Apr-18 16:48 35.046253 -106.616501 89 5319ft 0kts
15-Apr-18 16:49 35.046253 -106.616501 89 5319ft 0kts
15-Apr-18 16:50 35.046228 -106.616099 101 5319ft 4kts
15-Apr-18 16:51 35.045965 -106.613730 89 5319ft 12kts
15-Apr-18 16:52 35.045065 -106.610593 184 5319ft 11kts
15-Apr-18 16:53 35.042435 -106.609702 88 5319ft 12kts
15-Apr-18 16:54 35.042456 -106.608024 89 5319ft 0kts
15-Apr-18 16:55 35.042429 -106.607280 108 5319ft 10kts
15-Apr-18 16:56 35.032457 -106.618172 224 5320ft 146kts
15-Apr-18 16:57 34.997824 -106.661567 223 7576ft 193kts
15-Apr-18 16:58 34.968018 -106.722774 278 9007ft 263kts
15-Apr-18 16:59 34.984706 -106.810901 283 10891ft 261kts
15-Apr-18 17:00 35.006634 -106.903013 286 12883ft 317kts
15-Apr-18 17:01 35.034076 -107.014527 286 15136ft 352kts
15-Apr-18 17:02 35.062411 -107.130445 286 17920ft 361kts
15-Apr-18 17:03 35.091608 -107.249856 286 20392ft 371kts
15-Apr-18 17:04 35.111262 -107.329574 286 21842ft 377kts
15-Apr-18 17:05 35.126795 -107.393049 286 22886ft 381kts
15-Apr-18 17:06 35.157375 -107.518875 286 24740ft 389kts
15-Apr-18 17:07 35.188229 -107.646708 286 26417ft 396kts
15-Apr-18 17:08 35.219592 -107.777405 285 27933ft 403kts
15-Apr-18 17:09 35.251187 -107.909803 285 29275ft 409kts
15-Apr-18 17:10 35.254250 -107.922677 285 29409ft 409kts
15-Apr-18 17:11 35.278666 -108.025490 285 30717ft 405kts
15-Apr-18 17:12 35.309622 -108.156545 285 32392ft 397kts
15-Apr-18 17:13 35.339889 -108.285333 285 33897ft 390kts
15-Apr-18 17:14 35.369800 -108.413245 284 35095ft 390kts
15-Apr-18 17:15 35.399671 -108.540836 284 36154ft 390kts
15-Apr-18 17:16 35.429562 -108.669899 283 36177ft 390kts
15-Apr-18 17:17 35.458874 -108.797795 283 36179ft 390kts
15-Apr-18 17:18 35.478393 -108.927855 273 36176ft 389kts
15-Apr-18 17:19 35.485196 -109.060697 273 36174ft 393kts
15-Apr-18 17:20 35.491744 -109.196094 272 36176ft 399kts
15-Apr-18 17:21 35.498305 -109.332050 273 36173ft 398kts
15-Apr-18 17:22 35.504901 -109.467362 272 36167ft 397kts
15-Apr-18 17:23 35.511156 -109.602544 272 36147ft 397kts
15-Apr-18 17:24 35.517451 -109.738185 272 36132ft 397kts
15-Apr-18 17:25 35.523304 -109.873218 272 36130ft 396kts
15-Apr-18 17:26 35.528899 -110.008545 272 36118ft 396kts
15-Apr-18 17:27 35.534386 -110.143466 272 36096ft 396kts
15-Apr-18 17:28 35.539627 -110.278371 272 36098ft 396kts
15-Apr-18 17:29 35.544706 -110.413871 271 36090ft 397kts
15-Apr-18 17:30 35.549935 -110.549180 272 36083ft 397kts
15-Apr-18 17:31 35.555132 -110.684967 271 36093ft 398kts
15-Apr-18 17:32 35.560028 -110.820665 271 36109ft 398kts
15-Apr-18 17:33 35.564729 -110.956343 271 36118ft 398kts
15-Apr-18 17:34 35.569283 -111.092509 271 36128ft 398kts
15-Apr-18 17:35 35.573922 -111.228244 271 36139ft 398kts
15-Apr-18 17:36 35.578043 -111.364456 270 36149ft 398kts
15-Apr-18 17:37 35.581946 -111.498074 270 36148ft 398kts
15-Apr-18 17:38 35.584413 -111.605207 270 36149ft 397kts
15-Apr-18 17:39 35.587008 -111.741052 270 36157ft 396kts
15-Apr-18 17:40 35.589432 -111.876213 270 36155ft 396kts
15-Apr-18 17:41 35.593700 -112.011322 270 36153ft 396kts
15-Apr-18 17:42 35.598029 -112.146928 270 36151ft 396kts
15-Apr-18 17:43 35.601902 -112.282418 270 36146ft 397kts
15-Apr-18 17:44 35.605382 -112.418417 270 36145ft 397kts
15-Apr-18 17:45 35.608168 -112.553985 269 36139ft 397kts
15-Apr-18 17:46 35.610720 -112.689623 269 36133ft 396kts
15-Apr-18 17:47 35.613164 -112.822390 269 35274ft 381kts
15-Apr-18 17:48 35.615772 -112.952461 269 32861ft 377kts
15-Apr-18 17:49 35.617979 -113.078964 268 30944ft 365kts
15-Apr-18 17:50 35.620147 -113.202124 268 29120ft 355kts
15-Apr-18 17:51 35.621943 -113.321829 268 27357ft 347kts
15-Apr-18 17:52 35.623443 -113.439881 268 25609ft 342kts
15-Apr-18 17:53 35.626542 -113.556593 275 23659ft 344kts
15-Apr-18 17:54 35.643209 -113.672730 277 22168ft 343kts
15-Apr-18 17:55 35.659511 -113.787223 276 20526ft 336kts
15-Apr-18 17:56 35.675283 -113.899433 276 18916ft 330kts
15-Apr-18 17:57 35.690842 -114.009845 276 17375ft 324kts
15-Apr-18 17:58 35.706219 -114.119047 276 15832ft 323kts
15-Apr-18 17:59 35.721000 -114.226509 275 14274ft 306kts
15-Apr-18 18:00 35.734799 -114.327663 275 12820ft 297kts
15-Apr-18 18:01 35.785937 -114.402043 328 11742ft 303kts
15-Apr-18 18:02 35.864646 -114.440638 335 11183ft 307kts
15-Apr-18 18:03 35.944165 -114.477815 335 10637ft 304kts
15-Apr-18 18:04 36.019416 -114.514859 321 10099ft 274kts
15-Apr-18 18:05 36.049048 -114.592538 281 9310ft 247kts
15-Apr-18 18:06 36.063813 -114.673212 278 8511ft 233kts
15-Apr-18 18:07 36.073780 -114.749347 267 7699ft 217kts
15-Apr-18 18:08 36.073638 -114.822852 266 6686ft 211kts
15-Apr-18 18:09 36.073968 -114.890023 266 5710ft 205kts
15-Apr-18 18:10 36.073936 -114.945103 265 4908ft 182kts
15-Apr-18 18:11 36.073826 -115.001835 265 4092ft 148kts
15-Apr-18 18:12 36.073749 -115.052562 265 3358ft 147kts
15-Apr-18 18:13 36.073906 -115.102693 262 2613ft 139kts
15-Apr-18 18:14 36.073666 -115.146194 263 2189ft 62kts
15-Apr-18 18:15 36.074669 -115.155172 302 2189ft 3kts
15-Apr-18 18:16 36.074800 -115.155421 302 2189ft 0kts
15-Apr-18 18:17 36.077195 -115.158192 331 2189ft 13kts
15-Apr-18 18:18 36.078037 -115.154374 91 2189ft 16kts
15-Apr-18 18:19 36.077921 -115.149639 94 2189ft 16kts
15-Apr-18 18:20 36.077654 -115.145158 93 2189ft 12kts
15-Apr-18 18:21 36.078637 -115.142419 2 2189ft 10kts
15-Apr-18 18:22 36.082276 -115.142266 35 2189ft 11kts
15-Apr-18 18:23 36.082449 -115.140291 70 2189ft 0kts
15-Apr-18 18:24 36.082449 -115.140291 70 2189ft 0kts
15-Apr-18 18:25 36.082449 -115.140291 70 2189ft 0kts

Navigation Log

Ident Type
Flight plan parsing failed, navigation log unavailable